createdAt,value
2023-02-27T00:00:42.376Z,51.50
2023-02-27T00:03:08.929Z,51.84
2023-02-27T00:05:35.597Z,52.05
2023-02-27T00:08:02.154Z,52.05
2023-02-27T00:10:28.733Z,51.66
2023-02-27T00:12:56.112Z,52.20
2023-02-27T00:15:23.425Z,51.87
2023-02-27T00:17:50.823Z,52.20
2023-02-27T00:20:19.173Z,52.47
2023-02-27T00:22:46.794Z,52.48
2023-02-27T00:25:14.693Z,52.41
2023-02-27T00:27:41.685Z,52.48
2023-02-27T00:30:11.154Z,52.88
2023-02-27T00:32:37.728Z,52.37
2023-02-27T00:35:05.510Z,52.70
2023-02-27T00:37:32.142Z,52.94
2023-02-27T00:39:58.819Z,52.90
2023-02-27T00:42:25.509Z,53.07
2023-02-27T00:44:52.046Z,52.59
2023-02-27T00:47:18.662Z,53.18
2023-02-27T00:49:45.198Z,52.85
2023-02-27T00:52:11.888Z,52.75
2023-02-27T00:54:38.593Z,52.90
2023-02-27T00:57:05.182Z,53.11
2023-02-27T00:59:31.785Z,53.08
2023-02-27T01:01:58.482Z,53.00
2023-02-27T01:04:25.152Z,52.62
2023-02-27T01:06:51.766Z,53.03
2023-02-27T01:09:18.304Z,53.39
2023-02-27T01:11:44.912Z,53.35
2023-02-27T01:14:11.476Z,53.41
2023-02-27T01:16:38.155Z,53.45
2023-02-27T01:19:04.992Z,53.42
2023-02-27T01:21:31.528Z,53.60
2023-02-27T01:23:58.202Z,53.43
2023-02-27T01:26:25.103Z,53.55
2023-02-27T01:28:51.669Z,53.12
2023-02-27T01:31:18.327Z,53.42
2023-02-27T01:33:44.922Z,53.26
2023-02-27T01:36:11.799Z,53.79
2023-02-27T01:38:38.310Z,53.54
2023-02-27T01:41:07.390Z,53.56
2023-02-27T01:43:34.636Z,53.68
2023-02-27T01:46:01.304Z,53.36
2023-02-27T01:48:34.402Z,53.70
2023-02-27T01:51:06.742Z,53.93
2023-02-27T01:53:37.103Z,53.79
2023-02-27T01:56:16.510Z,53.85
2023-02-27T01:58:45.363Z,53.81
2023-02-27T02:01:11.983Z,53.87
2023-02-27T02:04:18.237Z,53.97
2023-02-27T02:06:49.485Z,54.28
2023-02-27T02:09:18.722Z,54.37
2023-02-27T02:11:45.258Z,53.95
2023-02-27T02:14:12.436Z,54.31
2023-02-27T02:16:54.800Z,54.43
2023-02-27T02:19:39.355Z,54.82
2023-02-27T02:22:27.053Z,54.66
2023-02-27T02:25:08.714Z,54.48
2023-02-27T02:28:04.586Z,54.21
2023-02-27T02:30:49.869Z,54.86
2023-02-27T02:33:48.731Z,54.64
2023-02-27T02:36:20.882Z,54.86
2023-02-27T02:39:05.408Z,54.84
2023-02-27T02:41:50.406Z,55.10
2023-02-27T02:44:20.002Z,54.60
2023-02-27T02:47:08.140Z,54.55
2023-02-27T02:50:02.114Z,55.29
2023-02-27T02:52:52.839Z,54.95
2023-02-27T02:55:34.634Z,55.09
2023-02-27T02:58:14.636Z,55.29
2023-02-27T03:00:48.823Z,55.17
2023-02-27T03:03:22.482Z,55.03
2023-02-27T03:05:54.797Z,55.33
2023-02-27T03:08:27.553Z,55.17
2023-02-27T03:10:58.045Z,55.27
2023-02-27T03:13:34.834Z,55.25
2023-02-27T03:16:11.777Z,55.35
2023-02-27T03:18:44.417Z,55.47
2023-02-27T03:21:18.331Z,55.28
2023-02-27T03:23:47.664Z,55.42
2023-02-27T03:26:17.642Z,55.62
2023-02-27T03:29:00.990Z,55.58
2023-02-27T03:31:58.803Z,55.52
2023-02-27T03:34:32.832Z,55.71
2023-02-27T03:37:11.685Z,55.82
2023-02-27T03:39:50.391Z,56.13
2023-02-27T03:42:29.179Z,56.16
2023-02-27T03:45:13.962Z,55.91
2023-02-27T03:47:40.727Z,55.89
2023-02-27T03:50:08.458Z,56.05
2023-02-27T03:52:35.413Z,56.10
2023-02-27T03:55:11.604Z,56.19
2023-02-27T03:57:38.543Z,56.11
2023-02-27T04:00:06.824Z,55.98
2023-02-27T04:02:33.832Z,56.35
2023-02-27T04:05:00.396Z,56.30
2023-02-27T04:07:34.676Z,56.32
2023-02-27T04:10:19.888Z,56.25
2023-02-27T04:13:08.501Z,56.44
2023-02-27T04:16:00.820Z,55.96
2023-02-27T04:18:39.691Z,56.57
2023-02-27T04:21:22.702Z,56.77
2023-02-27T04:23:56.413Z,56.94
2023-02-27T04:26:33.391Z,56.85
2023-02-27T04:29:16.246Z,56.91
2023-02-27T04:32:25.653Z,56.67
2023-02-27T04:34:58.596Z,56.68
2023-02-27T04:37:33.384Z,56.60
2023-02-27T04:40:10.034Z,57.01
2023-02-27T04:42:41.239Z,56.94
2023-02-27T04:45:11.847Z,57.12
2023-02-27T04:47:46.614Z,57.21
2023-02-27T04:50:19.733Z,57.42
2023-02-27T04:52:53.082Z,57.09
2023-02-27T04:55:27.281Z,57.46
2023-02-27T04:58:01.849Z,57.11
2023-02-27T05:00:30.507Z,57.48
2023-02-27T05:03:03.149Z,57.34
2023-02-27T05:05:33.843Z,57.18
2023-02-27T05:08:17.224Z,57.24
2023-02-27T05:10:52.200Z,57.20
2023-02-27T05:13:25.609Z,57.05
2023-02-27T05:15:58.530Z,57.13
2023-02-27T05:18:26.030Z,57.41
2023-02-27T05:21:05.820Z,57.22
2023-02-27T05:23:43.866Z,57.26
2023-02-27T05:26:19.769Z,57.62
2023-02-27T05:28:57.694Z,57.80
2023-02-27T05:31:34.386Z,57.59
2023-02-27T05:34:48.385Z,57.04
2023-02-27T05:37:34.337Z,57.13
2023-02-27T05:40:08.478Z,57.47
2023-02-27T05:42:40.932Z,57.66
2023-02-27T05:45:18.999Z,58.02
2023-02-27T05:47:52.348Z,57.86
2023-02-27T05:50:25.291Z,57.76
2023-02-27T05:52:54.519Z,57.97
2023-02-27T05:55:24.091Z,58.01
2023-02-27T05:58:24.035Z,58.56
2023-02-27T06:00:55.784Z,63.61
2023-02-27T06:03:22.319Z,62.01
2023-02-27T06:05:53.178Z,56.66
2023-02-27T06:08:20.703Z,55.25
2023-02-27T06:10:48.740Z,55.25
2023-02-27T06:13:17.154Z,55.11
2023-02-27T06:15:45.068Z,54.32
2023-02-27T06:18:13.061Z,55.00
2023-02-27T06:20:41.300Z,55.64
2023-02-27T06:23:08.129Z,55.88
2023-02-27T06:25:34.916Z,56.66
2023-02-27T06:28:01.700Z,55.96
2023-02-27T06:30:28.636Z,55.35
2023-02-27T06:32:55.347Z,55.33
2023-02-27T06:35:22.425Z,55.07
2023-02-27T06:37:49.105Z,55.31
2023-02-27T06:40:16.411Z,55.97
2023-02-27T06:42:44.612Z,56.15
2023-02-27T06:45:15.957Z,56.44
2023-02-27T06:47:43.284Z,57.04
2023-02-27T06:50:11.690Z,56.86
2023-02-27T06:52:39.050Z,57.32
2023-02-27T06:55:08.111Z,57.58
2023-02-27T06:57:34.756Z,57.44
2023-02-27T07:00:01.761Z,57.58
2023-02-27T07:02:28.328Z,57.53
2023-02-27T07:04:54.940Z,57.06
2023-02-27T07:07:32.545Z,57.80
2023-02-27T07:10:04.016Z,57.60
2023-02-27T07:12:30.572Z,57.39
2023-02-27T07:14:57.153Z,57.65
2023-02-27T07:17:23.738Z,57.53
2023-02-27T07:19:50.260Z,57.77
2023-02-27T07:22:16.854Z,57.46
2023-02-27T07:24:43.478Z,57.35
2023-02-27T07:27:10.054Z,57.31
2023-02-27T07:29:36.693Z,56.91
2023-02-27T07:32:03.551Z,56.53
2023-02-27T07:34:30.201Z,56.14
2023-02-27T07:36:56.795Z,56.38
2023-02-27T07:39:23.783Z,56.02
2023-02-27T07:41:50.356Z,55.84
2023-02-27T07:44:17.324Z,55.88
2023-02-27T07:46:44.773Z,55.89
2023-02-27T07:49:11.602Z,55.53
2023-02-27T07:51:38.237Z,54.77
2023-02-27T07:54:04.974Z,54.86
2023-02-27T07:56:31.616Z,54.47
2023-02-27T07:58:58.159Z,54.26
2023-02-27T08:01:24.694Z,53.91
2023-02-27T08:03:51.303Z,53.50
2023-02-27T08:06:18.078Z,53.35
2023-02-27T08:08:45.693Z,53.05
2023-02-27T08:11:12.285Z,52.85
2023-02-27T08:16:25.879Z,52.74
2023-02-27T08:18:52.829Z,52.23
2023-02-27T08:21:19.397Z,51.78
2023-02-27T08:23:46.105Z,51.29
2023-02-27T08:26:12.660Z,51.41
2023-02-27T08:28:39.322Z,51.21
2023-02-27T08:31:07.014Z,51.25
2023-02-27T08:33:34.217Z,50.92
2023-02-27T08:36:00.791Z,51.06
2023-02-27T08:38:27.853Z,50.67
2023-02-27T08:40:54.428Z,50.55
2023-02-27T08:43:22.466Z,50.13
2023-02-27T08:45:49.814Z,50.47
2023-02-27T08:48:17.818Z,50.23
2023-02-27T08:50:45.210Z,49.90
2023-02-27T08:53:12.546Z,49.29
2023-02-27T08:55:39.105Z,49.37
2023-02-27T08:58:05.742Z,49.17
2023-02-27T09:00:32.956Z,48.72
2023-02-27T09:03:01.420Z,48.68
2023-02-27T09:05:29.260Z,48.00
2023-02-27T09:07:55.856Z,48.12
2023-02-27T09:10:22.748Z,47.88
2023-02-27T09:12:49.449Z,47.08
2023-02-27T09:15:16.294Z,47.44
2023-02-27T09:17:42.864Z,47.38
2023-02-27T09:20:10.772Z,47.39
2023-02-27T09:22:38.125Z,46.79
2023-02-27T09:25:05.551Z,46.87
2023-02-27T09:27:32.202Z,46.77
2023-02-27T09:29:59.325Z,46.57
2023-02-27T09:32:27.316Z,46.48
2023-02-27T09:34:54.213Z,46.64
2023-02-27T09:37:20.757Z,45.75
2023-02-27T09:39:47.569Z,45.51
2023-02-27T09:42:19.234Z,45.51
2023-02-27T09:45:06.128Z,45.45
2023-02-27T09:47:40.857Z,45.24
2023-02-27T09:50:30.433Z,45.36
2023-02-27T09:52:57.792Z,45.00
2023-02-27T09:55:30.100Z,44.96
2023-02-27T09:58:04.458Z,44.24
2023-02-27T10:00:43.617Z,44.16
2023-02-27T10:03:31.553Z,44.01
2023-02-27T10:06:12.969Z,43.41
2023-02-27T10:09:04.569Z,43.56
2023-02-27T10:11:52.843Z,42.41
2023-02-27T10:14:39.714Z,42.41
2023-02-27T10:17:16.183Z,42.88
2023-02-27T10:19:46.009Z,42.63
2023-02-27T10:22:25.382Z,42.45
2023-02-27T10:25:30.798Z,42.85
2023-02-27T10:28:09.095Z,42.13
2023-02-27T10:30:36.060Z,42.32
2023-02-27T10:33:09.651Z,41.65
2023-02-27T10:35:39.636Z,42.23
2023-02-27T10:38:37.590Z,42.16
2023-02-27T10:41:06.188Z,42.08
2023-02-27T10:43:32.870Z,41.80
2023-02-27T10:46:07.098Z,41.46
2023-02-27T10:48:33.864Z,40.70
2023-02-27T10:51:18.950Z,39.84
2023-02-27T10:53:45.503Z,39.81
2023-02-27T10:56:22.070Z,39.78
2023-02-27T10:59:03.252Z,40.06
2023-02-27T11:01:45.310Z,39.35
2023-02-27T11:04:12.626Z,40.06
2023-02-27T11:06:40.398Z,40.54
2023-02-27T11:09:21.102Z,40.21
2023-02-27T11:11:48.104Z,39.94
2023-02-27T11:17:01.436Z,39.11
2023-02-27T11:19:30.984Z,38.63
2023-02-27T11:22:20.876Z,37.96
2023-02-27T11:24:48.226Z,38.64
2023-02-27T11:27:30.132Z,38.09
2023-02-27T11:30:02.442Z,38.62
2023-02-27T11:32:42.226Z,38.17
2023-02-27T11:35:32.227Z,38.29
2023-02-27T11:38:03.021Z,37.96
2023-02-27T11:40:40.974Z,38.41
2023-02-27T11:43:21.555Z,38.72
2023-02-27T11:46:08.028Z,38.74
2023-02-27T11:48:50.506Z,38.18
2023-02-27T11:51:36.554Z,37.45
2023-02-27T11:54:35.248Z,38.54
2023-02-27T11:57:10.145Z,37.90
2023-02-27T12:00:14.234Z,38.05
2023-02-27T12:03:07.383Z,38.05
2023-02-27T12:05:42.916Z,38.17
2023-02-27T12:08:19.542Z,37.82
2023-02-27T12:10:54.142Z,37.14
2023-02-27T12:13:25.863Z,37.66
2023-02-27T12:16:12.907Z,37.34
2023-02-27T12:18:53.287Z,37.34
2023-02-27T12:21:27.330Z,37.64
2023-02-27T12:24:00.557Z,37.15
2023-02-27T12:26:33.178Z,37.47
2023-02-27T12:29:13.916Z,37.41
2023-02-27T12:32:12.101Z,37.49
2023-02-27T12:34:46.538Z,36.70
2023-02-27T12:37:17.247Z,36.34
2023-02-27T12:39:45.660Z,36.29
2023-02-27T12:42:39.790Z,36.27
2023-02-27T12:45:28.026Z,37.01
2023-02-27T12:48:17.104Z,36.60
2023-02-27T12:51:03.356Z,37.41
2023-02-27T12:54:10.270Z,37.09
2023-02-27T12:56:52.155Z,37.01
2023-02-27T12:59:47.666Z,36.15
2023-02-27T13:02:49.151Z,36.34
2023-02-27T13:05:41.028Z,36.05
2023-02-27T13:08:26.293Z,35.37
2023-02-27T13:11:05.014Z,35.38
2023-02-27T13:14:19.117Z,35.60
2023-02-27T13:17:10.583Z,35.29
2023-02-27T13:19:41.865Z,35.49
2023-02-27T13:22:27.303Z,34.91
2023-02-27T13:24:56.309Z,35.26
2023-02-27T13:27:37.518Z,34.54
2023-02-27T13:30:04.097Z,34.99
2023-02-27T13:32:59.909Z,34.98
2023-02-27T13:35:52.907Z,34.41
2023-02-27T13:38:44.424Z,34.51
2023-02-27T13:41:29.106Z,34.41
2023-02-27T13:44:01.394Z,34.32
2023-02-27T13:46:34.352Z,34.55
2023-02-27T13:49:19.953Z,33.99
2023-02-27T13:51:54.593Z,33.67
2023-02-27T13:54:39.942Z,33.77
2023-02-27T13:57:17.260Z,32.94
2023-02-27T13:59:52.809Z,32.75
2023-02-27T14:02:31.032Z,32.85
2023-02-27T14:05:02.707Z,32.47
2023-02-27T14:07:32.215Z,33.00
2023-02-27T14:10:11.359Z,32.82
2023-02-27T14:12:46.351Z,33.25
2023-02-27T14:15:22.459Z,32.41
2023-02-27T14:17:54.419Z,32.01
2023-02-27T14:20:24.549Z,32.49
2023-02-27T14:23:15.622Z,32.47
2023-02-27T14:25:56.591Z,31.91
2023-02-27T14:28:43.794Z,31.78
2023-02-27T14:31:28.284Z,31.93
2023-02-27T14:33:58.878Z,32.36
2023-02-27T14:36:28.098Z,31.76
2023-02-27T14:38:57.531Z,31.65
2023-02-27T14:41:57.974Z,31.58
2023-02-27T14:44:27.983Z,30.73
2023-02-27T14:46:57.138Z,31.91
2023-02-27T14:49:29.251Z,32.38
2023-02-27T14:51:55.962Z,31.76
2023-02-27T14:54:27.335Z,31.54
2023-02-27T14:57:04.335Z,30.89
2023-02-27T14:59:34.044Z,30.18
2023-02-27T15:02:04.290Z,30.36
2023-02-27T15:04:33.114Z,29.27
2023-02-27T15:07:00.794Z,29.61
2023-02-27T15:09:35.623Z,29.70
2023-02-27T15:12:04.682Z,29.43
2023-02-27T15:14:36.860Z,29.59
2023-02-27T15:17:03.438Z,30.34
2023-02-27T15:19:30.708Z,31.40
2023-02-27T15:21:59.768Z,32.20
2023-02-27T15:24:49.552Z,32.73
2023-02-27T15:27:21.031Z,33.58
2023-02-27T15:29:58.935Z,34.24
2023-02-27T15:32:29.720Z,34.72
2023-02-27T15:34:58.762Z,35.39
2023-02-27T15:37:28.847Z,36.00
2023-02-27T15:39:56.341Z,36.19
2023-02-27T15:42:36.442Z,36.69
2023-02-27T15:45:05.055Z,36.39
2023-02-27T15:47:33.140Z,36.54
2023-02-27T15:50:10.018Z,36.48
2023-02-27T15:52:44.023Z,36.75
2023-02-27T15:55:14.849Z,37.27
2023-02-27T15:57:52.875Z,37.35
2023-02-27T16:00:29.852Z,37.22
2023-02-27T16:02:57.863Z,37.81
2023-02-27T16:05:33.554Z,37.46
2023-02-27T16:08:02.604Z,37.51
2023-02-27T16:10:43.360Z,37.93
2023-02-27T16:13:25.215Z,37.32
2023-02-27T16:16:04.104Z,37.68
2023-02-27T16:18:32.088Z,37.04
2023-02-27T16:21:13.201Z,37.97
2023-02-27T16:23:40.257Z,37.98
2023-02-27T16:26:24.974Z,38.18
2023-02-27T16:28:55.416Z,38.44
2023-02-27T16:31:25.142Z,38.92
2023-02-27T16:33:53.144Z,38.83
2023-02-27T16:36:23.022Z,39.13
2023-02-27T16:38:49.701Z,39.47
2023-02-27T16:41:17.665Z,39.75
2023-02-27T16:43:46.196Z,39.64
2023-02-27T16:46:20.565Z,39.80
2023-02-27T16:48:53.322Z,39.55
2023-02-27T16:51:23.961Z,39.75
2023-02-27T16:53:52.144Z,40.06
2023-02-27T16:56:23.672Z,39.72
2023-02-27T16:58:55.712Z,40.40
2023-02-27T17:01:22.267Z,40.27
2023-02-27T17:03:48.808Z,40.60
2023-02-27T17:06:15.704Z,40.90
2023-02-27T17:08:46.882Z,41.16
2023-02-27T17:11:13.807Z,41.24
2023-02-27T17:13:41.197Z,41.22
2023-02-27T17:16:07.960Z,41.15
2023-02-27T17:18:34.525Z,41.35
2023-02-27T17:21:03.264Z,41.65
2023-02-27T17:23:30.500Z,41.58
2023-02-27T17:25:57.153Z,41.95
2023-02-27T17:28:24.152Z,41.79
2023-02-27T17:30:50.971Z,41.67
2023-02-27T17:33:17.817Z,41.65
2023-02-27T17:35:44.402Z,41.73
2023-02-27T17:38:11.020Z,41.96
2023-02-27T17:40:39.419Z,41.91
2023-02-27T17:43:06.262Z,41.96
2023-02-27T17:45:33.084Z,41.80
2023-02-27T17:47:59.852Z,42.08
2023-02-27T17:50:26.455Z,42.19
2023-02-27T17:52:53.034Z,42.23
2023-02-27T17:55:19.620Z,42.81
2023-02-27T17:57:46.232Z,42.64
2023-02-27T18:00:15.349Z,42.94
2023-02-27T18:02:44.351Z,42.77
2023-02-27T18:05:11.090Z,42.92
2023-02-27T18:07:37.843Z,43.34
2023-02-27T18:10:06.117Z,43.34
2023-02-27T18:12:33.013Z,43.52
2023-02-27T18:14:59.638Z,43.58
2023-02-27T18:17:26.292Z,43.84
2023-02-27T18:19:52.869Z,44.22
2023-02-27T18:22:21.683Z,44.08
2023-02-27T18:24:49.085Z,44.43
2023-02-27T18:27:16.306Z,44.77
2023-02-27T18:29:43.768Z,44.72
2023-02-27T18:32:10.865Z,44.97
2023-02-27T18:34:40.036Z,44.99
2023-02-27T18:37:06.986Z,44.90
2023-02-27T18:39:33.680Z,45.11
2023-02-27T18:42:00.294Z,45.45
2023-02-27T18:44:26.853Z,45.54
2023-02-27T18:46:53.486Z,45.88
2023-02-27T18:49:20.123Z,45.97
2023-02-27T18:51:46.813Z,46.01
2023-02-27T18:54:14.959Z,46.18
2023-02-27T18:56:41.842Z,46.13
2023-02-27T18:59:08.707Z,46.04
2023-02-27T19:01:37.769Z,45.79
2023-02-27T19:04:06.480Z,45.88
2023-02-27T19:06:35.654Z,45.80
2023-02-27T19:09:04.989Z,45.63
2023-02-27T19:11:35.594Z,45.80
2023-02-27T19:14:05.040Z,45.66
2023-02-27T19:16:32.369Z,45.78
2023-02-27T19:19:00.942Z,45.55
2023-02-27T19:21:28.272Z,45.35
2023-02-27T19:23:55.161Z,45.66
2023-02-27T19:26:23.293Z,45.55
2023-02-27T19:28:54.948Z,45.28
2023-02-27T19:31:23.752Z,45.37
2023-02-27T19:33:50.964Z,45.21
2023-02-27T19:36:19.842Z,45.17
2023-02-27T19:38:46.459Z,45.24
2023-02-27T19:41:16.643Z,45.06
2023-02-27T19:43:43.905Z,45.09
2023-02-27T19:46:20.289Z,44.59
2023-02-27T19:48:47.227Z,44.57
2023-02-27T19:51:15.450Z,44.47
2023-02-27T19:53:43.499Z,44.23
2023-02-27T19:56:13.516Z,44.11
2023-02-27T19:58:40.806Z,43.96
2023-02-27T20:01:09.809Z,43.59
2023-02-27T20:03:38.067Z,43.61
2023-02-27T20:06:06.371Z,43.30
2023-02-27T20:08:33.810Z,43.18
2023-02-27T20:11:03.355Z,42.96
2023-02-27T20:13:30.748Z,43.08
2023-02-27T20:16:01.174Z,43.10
2023-02-27T20:18:29.902Z,42.66
2023-02-27T20:21:04.429Z,43.06
2023-02-27T20:23:33.020Z,43.08
2023-02-27T20:26:00.371Z,42.89
2023-02-27T20:28:28.456Z,43.04
2023-02-27T20:30:55.461Z,42.88
2023-02-27T20:33:22.048Z,43.17
2023-02-27T20:35:48.666Z,43.11
2023-02-27T20:38:17.053Z,42.65
2023-02-27T20:40:43.703Z,42.57
2023-02-27T20:43:10.289Z,42.70
2023-02-27T20:45:40.242Z,42.74
2023-02-27T20:48:07.022Z,42.58
2023-02-27T20:50:34.902Z,42.77
2023-02-27T20:53:01.508Z,42.83
2023-02-27T20:55:28.229Z,42.85
2023-02-27T20:57:54.783Z,42.57
2023-02-27T21:00:22.442Z,42.16
2023-02-27T21:02:49.209Z,41.92
2023-02-27T21:05:15.838Z,42.33
2023-02-27T21:07:42.470Z,42.25
2023-02-27T21:10:09.735Z,41.57
2023-02-27T21:12:36.397Z,41.74
2023-02-27T21:15:03.145Z,41.96
2023-02-27T21:17:29.769Z,41.28
2023-02-27T21:19:56.432Z,41.34
2023-02-27T21:22:23.357Z,41.39
2023-02-27T21:24:52.007Z,41.48
2023-02-27T21:27:21.368Z,41.47
2023-02-27T21:29:48.797Z,41.46
2023-02-27T21:32:15.650Z,41.94
2023-02-27T21:34:42.289Z,42.00
2023-02-27T21:37:10.586Z,41.71
2023-02-27T21:39:37.197Z,41.73
2023-02-27T21:42:04.014Z,41.45
2023-02-27T21:44:31.940Z,41.63
2023-02-27T21:46:58.643Z,41.32
2023-02-27T21:49:27.717Z,40.99
2023-02-27T21:51:54.947Z,41.25
2023-02-27T21:54:21.723Z,41.06
2023-02-27T21:56:49.235Z,40.75
2023-02-27T21:59:17.931Z,41.18
2023-02-27T22:01:48.508Z,41.28
2023-02-27T22:04:17.422Z,41.04
2023-02-27T22:06:44.420Z,40.89
2023-02-27T22:09:11.074Z,40.88
2023-02-27T22:11:37.728Z,41.09
2023-02-27T22:14:06.071Z,40.81
2023-02-27T22:16:33.340Z,41.26
2023-02-27T22:19:04.303Z,41.02
2023-02-27T22:21:31.123Z,41.49
2023-02-27T22:23:58.066Z,41.28
2023-02-27T22:26:28.139Z,41.62
2023-02-27T22:28:58.917Z,41.74
2023-02-27T22:31:31.833Z,41.68
2023-02-27T22:34:04.543Z,41.63
2023-02-27T22:36:32.278Z,41.81
2023-02-27T22:38:59.355Z,41.67
2023-02-27T22:41:34.162Z,41.92
2023-02-27T22:44:02.215Z,42.16
2023-02-27T22:46:34.752Z,42.25
2023-02-27T22:49:04.807Z,42.48
2023-02-27T22:51:32.329Z,42.42
2023-02-27T22:54:01.731Z,42.46
2023-02-27T22:56:28.740Z,42.94
2023-02-27T22:58:55.480Z,42.91
2023-02-27T23:01:33.084Z,43.12
2023-02-27T23:04:02.342Z,42.94
2023-02-27T23:06:31.693Z,43.23
2023-02-27T23:08:59.431Z,43.47
2023-02-27T23:11:26.339Z,43.44
2023-02-27T23:13:53.585Z,43.58
2023-02-27T23:16:20.814Z,43.98
2023-02-27T23:18:54.063Z,43.94
2023-02-27T23:21:24.122Z,44.21
2023-02-27T23:23:53.821Z,44.45
2023-02-27T23:26:20.565Z,44.47
2023-02-27T23:28:47.129Z,44.75
2023-02-27T23:31:13.792Z,44.88
2023-02-27T23:33:40.356Z,44.94
2023-02-27T23:36:07.365Z,44.92
2023-02-27T23:38:34.093Z,44.80
2023-02-27T23:41:07.714Z,44.91
2023-02-27T23:43:35.284Z,44.92
2023-02-27T23:46:10.315Z,45.29
2023-02-27T23:48:37.132Z,45.44
2023-02-27T23:51:05.515Z,45.31
2023-02-27T23:53:35.967Z,45.48
2023-02-27T23:56:14.087Z,45.60
2023-02-27T23:58:40.881Z,45.63
